Weather History for Monroe, MI

Change the Weather History Date:

Monday, October 15, 2012

  Actual Average Record
Temperature  
Mean Temperature 54 °F -  
Max Temperature 59 °F 63 °F 84 °F (1975)
Min Temperature 48 °F 43 °F 27 °F (1939)
Degree Days  
Heating Degree Days 12    
Growing Degree Days 4 (Base 50)    
Moisture  
Dew Point 44 °F    
Average Humidity 74    
Maximum Humidity 88    
Minimum Humidity 67    
Precipitation  
Precipitation 0.00 in - - ()
Sea Level Pressure  
Sea Level Pressure 29.78 in    
Wind  
Wind Speed 15 mph (West)    
Max Wind Speed 23 mph    
Max Gust Speed 34 mph    
Visibility 10 miles    
Events      
Averages and records for this station are not official NWS values.
T = Trace of Precipitation, MM = Missing Value Source: NWS Daily Summary

Daily Weather History Graph

Daily Weather History Graph

Search for Another Location

Airport:

Trip Planner

Search our weather history database for the weather conditions in past years. The results will help you decide how hot, cold, wet, or windy it might be!

Date:

Astronomy

Oct. 15, 2012 Rise Set
Actual Time 7:46 AM EDT 6:51 PM EDT
Civil Twilight 7:18 AM EDT 7:19 PM EDT
Nautical Twilight 6:46 AM EDT 7:51 PM EDT
Astronomical Twilight 6:13 AM EDT 8:24 PM EDT
Moon 7:56 AM EDT (10/15) 6:49 PM EDT (10/15)
Length of Visible Light 12h 00m
Length of Day
11h 04m
Waxing Crescent, 0% of the Moon is Illuminated
Oct 15
Waxing Crescent
Oct 21
First Quarter
Oct 29
Full
Nov 6
Last Quarter
Nov 13
New

Hourly Weather History & Observations

Time (EDT) Temp. Dew Point Humidity Pressure Visibility Wind Dir Wind Speed Gust Speed Precip Events Conditions
12:13 AM 59.0 °F 53.6 °F 82% 29.53 in 10.0 mi WSW 20.7 mph 34.5 mph N/A   Overcast
12:33 AM 57.2 °F 53.6 °F 88% 29.54 in 10.0 mi WSW 20.7 mph 29.9 mph N/A   Overcast
1:13 AM 57.2 °F 50.0 °F 77% 29.58 in 10.0 mi West 21.9 mph 31.1 mph N/A   Overcast
1:54 AM 57.2 °F 48.2 °F 72% 29.60 in 10.0 mi West 21.9 mph 31.1 mph N/A   Overcast
2:14 AM 55.4 °F 48.2 °F 77% 29.61 in 10.0 mi West 23.0 mph 28.8 mph N/A   Overcast
2:34 AM 55.4 °F 48.2 °F 77% 29.62 in 10.0 mi West 18.4 mph 26.5 mph N/A   Overcast
2:54 AM 55.4 °F 48.2 °F 77% 29.62 in 10.0 mi West 17.3 mph 28.8 mph N/A   Overcast
3:14 AM 55.4 °F 48.2 °F 77% 29.63 in 10.0 mi West 13.8 mph 23.0 mph N/A   Overcast
3:34 AM 55.4 °F 48.2 °F 77% 29.64 in 10.0 mi West 17.3 mph 23.0 mph N/A   Overcast
3:54 AM 55.4 °F 48.2 °F 77% 29.64 in 10.0 mi West 13.8 mph 21.9 mph N/A   Overcast
4:14 AM 55.4 °F 46.4 °F 72% 29.65 in 10.0 mi WSW 10.4 mph 23.0 mph N/A   Overcast
4:35 AM 53.6 °F 48.2 °F 82% 29.65 in 10.0 mi West 12.7 mph 25.3 mph N/A   Overcast
4:55 AM 53.6 °F 48.2 °F 82% 29.66 in 10.0 mi WSW 12.7 mph - N/A   Overcast
5:15 AM 53.6 °F 48.2 °F 82% 29.67 in 10.0 mi WSW 11.5 mph 20.7 mph N/A   Overcast
5:55 AM 53.6 °F 46.4 °F 77% 29.68 in 10.0 mi West 10.4 mph - N/A   Overcast
6:15 AM 53.6 °F 44.6 °F 72% 29.70 in 10.0 mi West 15.0 mph 23.0 mph N/A   Overcast
6:35 AM 53.6 °F 44.6 °F 72% 29.70 in 10.0 mi West 13.8 mph 23.0 mph N/A   Overcast
6:55 AM 51.8 °F 44.6 °F 76% 29.71 in 10.0 mi West 11.5 mph 18.4 mph N/A   Overcast
7:15 AM 51.8 °F 44.6 °F 76% 29.71 in 10.0 mi West 13.8 mph 18.4 mph N/A   Overcast
7:35 AM 51.8 °F 44.6 °F 76% 29.71 in 10.0 mi West 13.8 mph 19.6 mph N/A   Overcast
8:11 AM 51.8 °F 44.6 °F 76% 29.73 in 10.0 mi West 9.2 mph - N/A   Overcast
8:31 AM 51.8 °F 44.6 °F 76% 29.73 in 10.0 mi West 9.2 mph - N/A   Scattered Clouds
8:51 AM 53.6 °F 46.4 °F 77% 29.73 in 10.0 mi West 9.2 mph - N/A   Mostly Cloudy
9:11 AM 51.8 °F 44.6 °F 76% 29.74 in 10.0 mi West 13.8 mph 18.4 mph N/A   Overcast
9:31 AM 51.8 °F 44.6 °F 76% 29.74 in 10.0 mi West 12.7 mph 20.7 mph N/A   Overcast
9:51 AM 53.6 °F 44.6 °F 72% 29.74 in 10.0 mi West 16.1 mph 19.6 mph N/A   Mostly Cloudy
10:11 AM 55.4 °F 44.6 °F 67% 29.75 in 10.0 mi WNW 17.3 mph 20.7 mph N/A   Mostly Cloudy
10:32 AM 53.6 °F 42.8 °F 67% 29.76 in 10.0 mi WNW 19.6 mph 27.6 mph N/A   Overcast
10:52 AM 53.6 °F 42.8 °F 67% 29.76 in 10.0 mi West 15.0 mph 24.2 mph N/A   Overcast
11:12 AM 53.6 °F 42.8 °F 67% 29.77 in 10.0 mi WNW 15.0 mph 20.7 mph N/A   Overcast
11:32 AM 53.6 °F 42.8 °F 67% 29.78 in 10.0 mi West 16.1 mph 23.0 mph N/A   Overcast
11:52 AM 53.6 °F 42.8 °F 67% 29.79 in 10.0 mi WNW 18.4 mph 25.3 mph N/A   Overcast
12:12 PM 53.6 °F 42.8 °F 67% 29.80 in 10.0 mi WNW 16.1 mph 24.2 mph N/A   Overcast
12:32 PM 51.8 °F 42.8 °F 71% 29.80 in 10.0 mi WNW 15.0 mph 20.7 mph N/A   Overcast
12:52 PM 51.8 °F 42.8 °F 71% 29.81 in 10.0 mi West 17.3 mph 21.9 mph N/A   Overcast
1:12 PM 51.8 °F 42.8 °F 71% 29.81 in 10.0 mi West 17.3 mph 26.5 mph N/A   Overcast
1:32 PM 53.6 °F 42.8 °F 67% 29.81 in 10.0 mi West 16.1 mph 24.2 mph N/A   Overcast
2:13 PM 53.6 °F 42.8 °F 67% 29.81 in 10.0 mi WNW 17.3 mph 25.3 mph N/A   Overcast
2:33 PM 53.6 °F 42.8 °F 67% 29.81 in 10.0 mi West 19.6 mph 24.2 mph N/A   Overcast
2:53 PM 53.6 °F 42.8 °F 67% 29.81 in 10.0 mi West 16.1 mph 20.7 mph N/A   Overcast
3:13 PM 53.6 °F 44.6 °F 72% 29.82 in 10.0 mi West 16.1 mph 24.2 mph N/A   Overcast
3:33 PM 51.8 °F 42.8 °F 71% 29.82 in 10.0 mi West 13.8 mph 19.6 mph N/A   Overcast
3:53 PM 53.6 °F 42.8 °F 67% 29.83 in 10.0 mi WNW 16.1 mph 23.0 mph N/A   Overcast
4:13 PM 51.8 °F 42.8 °F 71% 29.84 in 10.0 mi WNW 18.4 mph 23.0 mph N/A   Overcast
4:33 PM 51.8 °F 42.8 °F 71% 29.85 in 10.0 mi WNW 12.7 mph - N/A   Overcast
4:53 PM 51.8 °F 42.8 °F 71% 29.85 in 10.0 mi NW 11.5 mph 18.4 mph N/A   Overcast
5:14 PM 51.8 °F 42.8 °F 71% 29.86 in 10.0 mi WNW 13.8 mph 18.4 mph N/A   Overcast
5:34 PM 51.8 °F 42.8 °F 71% 29.86 in 10.0 mi NW 12.7 mph 17.3 mph N/A   Overcast
5:54 PM 51.8 °F 41.0 °F 67% 29.87 in 10.0 mi NW 12.7 mph 18.4 mph N/A   Overcast
6:14 PM 51.8 °F 41.0 °F 67% 29.87 in 10.0 mi NW 12.7 mph 18.4 mph N/A   Overcast
6:34 PM 51.8 °F 41.0 °F 67% 29.87 in 10.0 mi WNW 6.9 mph - N/A   Overcast
7:14 PM 50.0 °F 41.0 °F 71% 29.88 in 10.0 mi WNW 9.2 mph - N/A   Overcast
7:34 PM 50.0 °F 42.8 °F 76% 29.89 in 10.0 mi WNW 8.1 mph - N/A   Overcast
7:54 PM 50.0 °F 41.0 °F 71% 29.89 in 10.0 mi WNW 8.1 mph - N/A   Overcast
8:15 PM 50.0 °F 42.8 °F 76% 29.90 in 10.0 mi West 4.6 mph - N/A   Overcast
8:35 PM 50.0 °F 42.8 °F 76% 29.90 in 10.0 mi WNW 6.9 mph - N/A   Overcast
8:55 PM 50.0 °F 42.8 °F 76% 29.91 in 10.0 mi West 6.9 mph - N/A   Overcast
9:15 PM 48.2 °F 42.8 °F 82% 29.91 in 10.0 mi WNW 5.8 mph - N/A   Overcast
9:35 PM 48.2 °F 42.8 °F 82% 29.92 in 10.0 mi WNW 6.9 mph - N/A   Overcast
9:55 PM 48.2 °F 42.8 °F 82% 29.92 in 10.0 mi West 4.6 mph - N/A   Overcast
10:15 PM 48.2 °F 42.8 °F 82% 29.92 in 10.0 mi WNW 4.6 mph - N/A   Overcast
10:35 PM 48.2 °F 42.8 °F 82% 29.92 in 10.0 mi West 5.8 mph - N/A   Overcast
10:55 PM 48.2 °F 42.8 °F 82% 29.92 in 10.0 mi WNW 6.9 mph - N/A   Overcast
11:16 PM 48.2 °F 42.8 °F 82% 29.93 in 10.0 mi WNW 3.5 mph - N/A   Overcast
11:36 PM 48.2 °F 42.8 °F 82% 29.93 in 10.0 mi West 6.9 mph - N/A   Overcast
11:51 PM 48.2 °F 42.8 °F 82% 29.93 in 10.0 mi WNW 4.6 mph - N/A   Overcast